createdAt,value
2017-11-01T00:00:10.649Z,73.90
2017-11-01T00:02:40.165Z,73.80
2017-11-01T00:05:10.101Z,73.80
2017-11-01T00:07:39.218Z,73.80
2017-11-01T00:10:08.054Z,74.00
2017-11-01T00:12:36.874Z,73.90
2017-11-01T00:15:05.729Z,74.00
2017-11-01T00:17:34.551Z,73.90
2017-11-01T00:20:03.390Z,73.80
2017-11-01T00:22:32.010Z,73.60
2017-11-01T00:25:01.612Z,73.70
2017-11-01T00:27:30.284Z,73.70
2017-11-01T00:29:59.124Z,73.80
2017-11-01T00:32:27.977Z,73.90
2017-11-01T00:34:56.798Z,74.00
2017-11-01T00:37:25.636Z,74.00
2017-11-01T00:39:56.283Z,74.20
2017-11-01T00:42:25.137Z,74.00
2017-11-01T00:44:53.680Z,73.90
2017-11-01T00:47:22.526Z,74.00
2017-11-01T00:49:51.354Z,73.90
2017-11-01T00:52:24.330Z,74.00
2017-11-01T00:54:54.842Z,74.00
2017-11-01T00:57:23.683Z,74.00
2017-11-01T00:59:52.520Z,74.00
2017-11-01T01:02:21.362Z,74.00
2017-11-01T01:04:50.210Z,74.00
2017-11-01T01:07:19.031Z,74.10
2017-11-01T01:09:48.651Z,74.20
2017-11-01T01:12:17.504Z,74.10
2017-11-01T01:14:46.345Z,74.00
2017-11-01T01:17:15.253Z,74.00
2017-11-01T01:19:44.081Z,73.90
2017-11-01T01:22:12.919Z,73.80
2017-11-01T01:24:41.770Z,73.70
2017-11-01T01:27:10.855Z,73.50
2017-11-01T01:29:39.700Z,73.50
2017-11-01T01:32:08.535Z,73.30
2017-11-01T01:34:37.367Z,73.40
2017-11-01T01:37:06.209Z,73.50
2017-11-01T01:39:35.064Z,73.50
2017-11-01T01:42:07.227Z,73.70
2017-11-01T01:44:36.074Z,73.50
2017-11-01T01:47:04.913Z,73.50
2017-11-01T01:49:33.739Z,73.40
2017-11-01T01:52:02.608Z,73.60
2017-11-01T01:54:31.453Z,73.70
2017-11-01T01:57:01.085Z,73.70
2017-11-01T01:59:29.924Z,73.70
2017-11-01T02:01:58.431Z,73.70
2017-11-01T02:04:28.032Z,73.70
2017-11-01T02:06:58.075Z,74.00
2017-11-01T02:09:26.912Z,74.00
2017-11-01T02:11:55.754Z,74.00
2017-11-01T02:14:24.615Z,74.00
2017-11-01T02:16:53.451Z,73.70
2017-11-01T02:19:22.711Z,73.50
2017-11-01T02:21:51.655Z,73.30
2017-11-01T02:24:19.822Z,73.30
2017-11-01T02:26:47.991Z,73.10
2017-11-01T02:29:16.163Z,73.10
2017-11-01T02:31:44.691Z,73.00
2017-11-01T02:34:13.554Z,73.00
2017-11-01T02:36:42.088Z,72.90
2017-11-01T02:39:11.734Z,73.40
2017-11-01T02:41:40.597Z,72.70
2017-11-01T02:44:09.879Z,72.40
2017-11-01T02:46:38.045Z,72.30
2017-11-01T02:49:06.204Z,72.40
2017-11-01T02:51:34.382Z,72.40
2017-11-01T02:54:02.567Z,72.20
2017-11-01T02:56:30.726Z,72.10
2017-11-01T02:58:59.270Z,71.80
2017-11-01T03:01:27.789Z,71.70
2017-11-01T03:03:55.969Z,71.80
2017-11-01T03:06:24.483Z,71.60
2017-11-01T03:08:53.002Z,71.60
2017-11-01T03:11:21.166Z,71.10
2017-11-01T03:13:49.686Z,71.70
2017-11-01T03:16:17.882Z,71.60
2017-11-01T03:18:46.059Z,71.50
2017-11-01T03:21:14.235Z,71.40
2017-11-01T03:23:42.738Z,71.20
2017-11-01T03:26:11.227Z,71.30
2017-11-01T03:28:40.508Z,71.30
2017-11-01T03:31:09.349Z,71.30
2017-11-01T03:33:37.876Z,71.30
2017-11-01T03:36:06.053Z,71.30
2017-11-01T03:38:34.224Z,71.20
2017-11-01T03:41:02.393Z,71.10
2017-11-01T03:43:30.559Z,71.00
2017-11-01T03:45:59.518Z,71.20
2017-11-01T03:48:27.687Z,71.20
2017-11-01T03:50:56.230Z,71.30
2017-11-01T03:53:24.786Z,71.40
2017-11-01T03:55:53.298Z,71.40
2017-11-01T03:58:21.498Z,71.30
2017-11-01T04:00:50.438Z,71.30
2017-11-01T04:03:18.612Z,71.30
2017-11-01T04:05:47.142Z,71.30
2017-11-01T04:08:16.423Z,71.50
2017-11-01T04:10:44.609Z,71.30
2017-11-01T04:13:14.262Z,71.70
2017-11-01T04:15:43.099Z,71.60
2017-11-01T04:18:17.458Z,71.90
2017-11-01T04:20:52.845Z,71.90
2017-11-01T04:23:21.334Z,71.80
2017-11-01T04:25:50.355Z,71.90
2017-11-01T04:28:18.863Z,72.00
2017-11-01T04:30:47.398Z,72.00
2017-11-01T04:33:15.566Z,72.20
2017-11-01T04:35:44.114Z,72.30
2017-11-01T04:38:12.634Z,72.30
2017-11-01T04:40:41.150Z,72.30
2017-11-01T04:43:10.435Z,72.50
2017-11-01T04:45:38.624Z,72.50
2017-11-01T04:48:08.249Z,72.80
2017-11-01T04:50:36.425Z,72.80
2017-11-01T04:53:04.947Z,72.90
2017-11-01T04:55:33.131Z,73.20
2017-11-01T04:58:01.651Z,73.20
2017-11-01T05:00:34.043Z,74.30
2017-11-01T05:03:02.231Z,74.30
2017-11-01T05:05:31.070Z,74.90
2017-11-01T05:07:59.914Z,75.20
2017-11-01T05:10:34.651Z,75.60
2017-11-01T05:13:03.695Z,75.90
2017-11-01T05:15:32.860Z,76.70
2017-11-01T05:18:01.036Z,77.50
2017-11-01T05:20:29.585Z,77.90
2017-11-01T05:22:58.911Z,78.60
2017-11-01T05:25:36.285Z,79.10
2017-11-01T05:28:04.827Z,79.00
2017-11-01T05:30:34.019Z,79.70
2017-11-01T05:33:02.182Z,80.20
2017-11-01T05:35:30.668Z,80.40
2017-11-01T05:37:58.839Z,80.60
2017-11-01T05:40:27.017Z,81.30
2017-11-01T05:42:55.185Z,81.70
2017-11-01T05:45:24.045Z,81.80
2017-11-01T05:47:52.886Z,82.30
2017-11-01T05:50:21.816Z,83.00
2017-11-01T05:52:50.699Z,83.50
2017-11-01T05:55:19.555Z,84.00
2017-11-01T05:57:48.074Z,84.10
2017-11-01T06:00:16.262Z,84.00
2017-11-01T06:02:45.155Z,84.30
2017-11-01T06:05:13.346Z,84.80
2017-11-01T06:07:41.882Z,84.60
2017-11-01T06:10:11.507Z,85.00
2017-11-01T06:12:39.683Z,85.00
2017-11-01T06:15:08.202Z,85.50
2017-11-01T06:17:36.393Z,86.00
2017-11-01T06:20:04.599Z,85.80
2017-11-01T06:22:34.208Z,86.10
2017-11-01T06:25:03.174Z,86.70
2017-11-01T06:27:31.351Z,86.70
2017-11-01T06:29:59.876Z,87.20
2017-11-01T06:32:29.530Z,87.30
2017-11-01T06:34:58.064Z,87.20
2017-11-01T06:37:26.238Z,87.50
2017-11-01T06:39:55.977Z,87.40
2017-11-01T06:42:24.507Z,87.80
2017-11-01T06:44:53.482Z,88.60
2017-11-01T06:47:22.024Z,88.00
2017-11-01T06:49:50.222Z,87.90
2017-11-01T06:52:19.627Z,87.80
2017-11-01T06:54:48.471Z,88.10
2017-11-01T06:57:18.102Z,88.30
2017-11-01T06:59:46.983Z,88.30
2017-11-01T07:02:15.838Z,88.20
2017-11-01T07:04:44.379Z,88.20
2017-11-01T07:07:13.589Z,88.40
2017-11-01T07:09:44.262Z,89.90
2017-11-01T07:12:14.841Z,90.90
2017-11-01T07:14:43.690Z,90.60
2017-11-01T07:17:13.945Z,86.80
2017-11-01T07:19:42.792Z,86.60
2017-11-01T07:22:11.045Z,86.50
2017-11-01T07:24:39.769Z,87.90
2017-11-01T07:27:09.423Z,89.60
2017-11-01T07:29:38.262Z,89.60
2017-11-01T07:32:07.122Z,90.00
2017-11-01T07:34:35.966Z,90.20
2017-11-01T07:37:04.823Z,90.30
2017-11-01T07:39:33.662Z,90.60
2017-11-01T07:42:02.519Z,90.40
2017-11-01T07:44:31.381Z,90.60
2017-11-01T07:47:00.287Z,90.70
2017-11-01T07:49:29.920Z,90.80
2017-11-01T07:51:59.420Z,90.80
2017-11-01T07:54:29.050Z,90.80
2017-11-01T07:56:58.705Z,90.80
2017-11-01T07:59:27.556Z,90.70
2017-11-01T08:01:57.116Z,90.80
2017-11-01T08:04:26.056Z,91.20
2017-11-01T08:06:54.903Z,91.50
2017-11-01T08:09:23.747Z,91.30
2017-11-01T08:11:52.968Z,91.40
2017-11-01T08:14:21.872Z,91.60
2017-11-01T08:16:50.717Z,91.70
2017-11-01T08:19:19.714Z,92.00
2017-11-01T08:21:48.575Z,91.80
2017-11-01T08:24:17.700Z,91.80
2017-11-01T08:26:46.901Z,92.20
2017-11-01T08:29:16.502Z,92.00
2017-11-01T08:31:45.347Z,91.90
2017-11-01T08:34:14.218Z,91.90
2017-11-01T08:36:43.062Z,91.90
2017-11-01T08:39:12.518Z,91.80
2017-11-01T08:41:41.374Z,91.80
2017-11-01T08:44:10.238Z,91.90
2017-11-01T08:46:39.095Z,92.10
2017-11-01T08:49:07.944Z,92.20
2017-11-01T08:51:36.829Z,92.30
2017-11-01T08:54:06.459Z,92.00
2017-11-01T08:56:36.217Z,92.00
2017-11-01T08:59:05.063Z,92.00
2017-11-01T09:01:33.956Z,92.20
2017-11-01T09:04:02.818Z,92.20
2017-11-01T09:06:32.431Z,92.70
2017-11-01T09:09:01.292Z,92.70
2017-11-01T09:11:30.998Z,92.70
2017-11-01T09:13:59.842Z,92.80
2017-11-01T09:16:28.686Z,92.80
2017-11-01T09:18:57.536Z,92.80
2017-11-01T09:21:26.390Z,92.70
2017-11-01T09:23:56.006Z,92.80
2017-11-01T10:57:24.704Z,92.90
2017-11-01T10:59:53.583Z,90.60
2017-11-01T11:02:22.441Z,91.00
2017-11-01T11:04:51.586Z,91.30
2017-11-01T11:07:20.443Z,91.80
2017-11-01T11:09:49.286Z,92.00
2017-11-01T11:12:18.593Z,92.40
2017-11-01T11:14:48.230Z,92.40
2017-11-01T11:17:17.079Z,92.30
2017-11-01T11:19:45.917Z,92.30
2017-11-01T11:22:14.774Z,92.40
2017-11-01T11:24:44.378Z,92.60
2017-11-01T11:27:13.983Z,92.40
2017-11-01T11:29:43.595Z,92.60
2017-11-01T11:32:13.213Z,92.60
2017-11-01T11:34:43.123Z,92.50
2017-11-01T11:37:12.757Z,92.50
2017-11-01T11:39:41.625Z,92.50
2017-11-01T11:42:11.286Z,92.70
2017-11-01T11:44:40.143Z,92.70
2017-11-01T11:47:08.991Z,92.80
2017-11-01T11:49:37.837Z,93.20
2017-11-01T11:52:07.347Z,92.90
2017-11-01T11:54:36.199Z,93.00
2017-11-01T11:57:05.150Z,93.40
2017-11-01T11:59:34.334Z,93.30
2017-11-01T12:02:03.024Z,93.40
2017-11-01T12:04:31.893Z,93.50
2017-11-01T12:07:00.403Z,93.70
2017-11-01T12:09:28.915Z,93.80
2017-11-01T12:11:57.651Z,94.00
2017-11-01T12:14:26.487Z,94.00
2017-11-01T12:16:54.691Z,94.00
2017-11-01T12:19:25.341Z,94.40
2017-11-01T12:21:54.183Z,94.40
2017-11-01T12:24:23.021Z,94.30
2017-11-01T12:26:52.327Z,94.40
2017-11-01T12:29:21.180Z,94.50
2017-11-01T12:31:50.033Z,94.70
2017-11-01T12:34:18.908Z,94.70
2017-11-01T12:36:47.744Z,94.60
2017-11-01T12:39:16.602Z,94.70
2017-11-01T12:41:45.457Z,94.70
2017-11-01T12:44:15.061Z,94.70
2017-11-01T12:46:43.915Z,94.70
2017-11-01T12:49:12.762Z,94.70
2017-11-01T12:51:41.633Z,94.50
2017-11-01T12:54:11.275Z,94.10
2017-11-01T12:56:40.125Z,94.50
2017-11-01T12:59:09.742Z,94.10
2017-11-01T13:01:39.357Z,93.90
2017-11-01T13:04:09.018Z,93.90
2017-11-01T13:06:37.874Z,93.90
2017-11-01T13:09:06.730Z,93.90
2017-11-01T13:11:35.568Z,93.90
2017-11-01T13:14:04.100Z,93.90
2017-11-01T13:16:32.948Z,93.80
2017-11-01T13:19:01.815Z,94.00
2017-11-01T13:21:30.681Z,93.70
2017-11-01T13:24:00.123Z,93.60
2017-11-01T13:26:28.978Z,93.50
2017-11-01T13:28:57.840Z,93.50
2017-11-01T13:31:26.698Z,93.40
2017-11-01T13:33:55.555Z,93.30
2017-11-01T13:36:25.200Z,93.10
2017-11-01T13:38:54.056Z,93.10
2017-11-01T13:41:23.694Z,93.00
2017-11-01T13:43:52.569Z,93.00
2017-11-01T13:46:21.413Z,93.00
2017-11-01T13:48:50.277Z,93.00
2017-11-01T13:51:19.149Z,93.00
2017-11-01T13:53:47.676Z,93.00
2017-11-01T13:56:16.535Z,92.90
2017-11-01T13:58:45.395Z,93.00
2017-11-01T14:01:15.022Z,93.00
2017-11-01T14:03:43.870Z,93.00
2017-11-01T14:06:12.729Z,93.00
2017-11-01T14:08:41.590Z,92.90
2017-11-01T14:11:10.466Z,92.90
2017-11-01T14:13:39.313Z,92.80
2017-11-01T14:16:08.167Z,92.80
2017-11-01T14:18:37.006Z,92.70
2017-11-01T14:21:05.858Z,92.90
2017-11-01T14:23:34.534Z,92.70
2017-11-01T14:26:03.374Z,92.70
2017-11-01T14:28:32.233Z,92.70
2017-11-01T14:31:01.084Z,92.70
2017-11-01T14:33:30.715Z,92.80
2017-11-01T14:35:59.575Z,92.80
2017-11-01T14:38:28.262Z,92.80
2017-11-01T14:40:57.103Z,92.70
2017-11-01T14:43:25.963Z,92.80
2017-11-01T14:45:55.586Z,92.80
2017-11-01T14:48:25.218Z,92.80
2017-11-01T14:50:54.085Z,92.70
2017-11-01T14:53:22.954Z,92.80
2017-11-01T14:55:52.575Z,92.80
2017-11-01T14:58:21.431Z,92.80
2017-11-01T15:00:51.540Z,92.80
2017-11-01T15:03:20.574Z,92.90
2017-11-01T15:05:50.211Z,92.90
2017-11-01T15:08:19.075Z,92.90
2017-11-01T15:10:48.709Z,93.10
2017-11-01T15:13:17.561Z,93.00
2017-11-01T15:15:46.435Z,93.10
2017-11-01T15:18:15.298Z,93.00
2017-11-01T15:20:44.155Z,93.10
2017-11-01T15:23:13.795Z,93.20
2017-11-01T15:25:43.042Z,93.20
2017-11-01T15:28:11.892Z,93.30
2017-11-01T15:30:40.757Z,93.60
2017-11-01T15:33:09.625Z,93.40
2017-11-01T15:35:39.250Z,93.40
2017-11-01T15:38:08.258Z,93.40
2017-11-01T15:40:37.111Z,93.40
2017-11-01T15:43:06.726Z,93.70
2017-11-01T15:45:36.362Z,93.40
2017-11-01T15:48:05.223Z,93.40
2017-11-01T15:50:34.867Z,93.40
2017-11-01T15:53:03.733Z,93.40
2017-11-01T15:55:33.357Z,93.60
2017-11-01T15:58:02.204Z,93.60
2017-11-01T16:00:30.723Z,93.50
2017-11-01T16:02:59.645Z,93.70
2017-11-01T16:05:28.495Z,93.80
2017-11-01T16:07:58.129Z,93.90
2017-11-01T16:10:26.984Z,93.90
2017-11-01T16:12:55.835Z,94.10
2017-11-01T16:15:24.695Z,94.10
2017-11-01T16:17:52.887Z,94.10
2017-11-01T16:20:21.762Z,94.20
2017-11-01T16:22:50.609Z,94.20
2017-11-01T16:25:22.071Z,94.30
2017-11-01T16:27:50.926Z,94.20
2017-11-01T16:30:19.786Z,94.30
2017-11-01T16:32:48.662Z,94.30
2017-11-01T16:35:18.292Z,94.50
2017-11-01T16:37:47.157Z,94.40
2017-11-01T16:40:17.721Z,94.40
2017-11-01T16:42:46.618Z,94.30
2017-11-01T16:45:15.478Z,94.30
2017-11-01T16:47:45.204Z,94.40
2017-11-01T16:50:13.407Z,94.40
2017-11-01T16:52:42.271Z,94.30
2017-11-01T16:55:11.133Z,94.20
2017-11-01T16:57:40.759Z,94.20
2017-11-01T17:00:10.262Z,94.10
2017-11-01T17:02:39.895Z,94.10
2017-11-01T17:05:08.754Z,94.10
2017-11-01T17:07:38.435Z,94.30
2017-11-01T17:10:07.294Z,94.00
2017-11-01T17:12:36.169Z,94.00
2017-11-01T17:15:04.452Z,93.90
2017-11-01T17:17:33.302Z,93.80
2017-11-01T17:20:02.171Z,93.80
2017-11-01T17:22:31.030Z,93.70
2017-11-01T17:24:59.371Z,93.50
2017-11-01T17:27:28.987Z,93.30
2017-11-01T17:29:58.611Z,93.20
2017-11-01T17:32:27.468Z,93.20
2017-11-01T17:34:57.945Z,93.10
2017-11-01T17:37:27.418Z,93.10
2017-11-01T17:39:57.054Z,92.90
2017-11-01T17:42:25.906Z,92.90
2017-11-01T17:44:56.338Z,92.80
2017-11-01T17:47:25.973Z,92.80
2017-11-01T17:49:54.217Z,92.80
2017-11-01T17:52:23.088Z,92.80
2017-11-01T17:54:51.950Z,92.70
2017-11-01T17:57:20.799Z,92.80
2017-11-01T17:59:49.669Z,92.70
2017-11-01T18:02:18.556Z,92.60
2017-11-01T18:04:47.408Z,92.50
2017-11-01T18:07:16.292Z,92.50
2017-11-01T18:09:45.143Z,92.50
2017-11-01T18:12:13.990Z,92.50
2017-11-01T18:14:42.851Z,92.40
2017-11-01T18:17:12.468Z,92.40
2017-11-01T18:19:41.333Z,92.40
2017-11-01T18:22:10.971Z,92.20
2017-11-01T18:24:39.826Z,92.20
2017-11-01T18:27:09.476Z,92.20
2017-11-01T18:29:38.355Z,92.20
2017-11-01T18:32:07.201Z,92.10
2017-11-01T18:34:36.076Z,92.10
2017-11-01T18:37:04.950Z,92.20
2017-11-01T18:39:33.816Z,92.10
2017-11-01T18:42:02.699Z,92.10
2017-11-01T18:44:32.345Z,92.20
2017-11-01T18:47:01.207Z,92.00
2017-11-01T18:49:30.825Z,92.10
2017-11-01T18:51:59.723Z,92.10
2017-11-01T18:54:28.579Z,92.20
2017-11-01T18:56:57.434Z,92.10
2017-11-01T18:59:26.312Z,92.10
2017-11-01T19:01:55.168Z,92.10
2017-11-01T19:04:24.799Z,92.10
2017-11-01T19:06:53.009Z,92.10
2017-11-01T19:09:21.970Z,92.10
2017-11-01T19:11:50.818Z,92.00
2017-11-01T19:14:19.663Z,92.00
2017-11-01T19:16:47.864Z,92.00
2017-11-01T19:19:16.723Z,92.00
2017-11-01T19:21:45.599Z,92.00
2017-11-01T19:24:14.465Z,91.90
2017-11-01T19:26:44.098Z,92.00
2017-11-01T19:29:13.862Z,91.80
2017-11-01T19:31:42.719Z,91.80
2017-11-01T19:34:11.878Z,91.70
2017-11-01T19:36:41.504Z,91.70
2017-11-01T19:39:10.392Z,91.70
2017-11-01T19:41:39.846Z,91.70
2017-11-01T19:44:08.807Z,91.70
2017-11-01T19:46:37.663Z,91.80
2017-11-01T19:49:07.335Z,91.70
2017-11-01T19:51:36.198Z,91.80
2017-11-01T19:54:05.097Z,91.80
2017-11-01T19:56:33.931Z,91.80
2017-11-01T19:59:02.373Z,91.80
2017-11-01T20:01:32.284Z,91.80
2017-11-01T20:04:01.159Z,91.80
2017-11-01T20:06:30.043Z,91.70
2017-11-01T20:08:59.139Z,91.60
2017-11-01T20:11:29.408Z,91.50
2017-11-01T20:14:00.005Z,91.30
2017-11-01T20:16:33.286Z,91.20
2017-11-01T20:19:01.628Z,91.00
2017-11-01T20:21:30.507Z,91.00
2017-11-01T20:23:59.391Z,91.00
2017-11-01T20:26:28.108Z,90.90
2017-11-01T20:28:56.970Z,90.90
2017-11-01T20:31:26.487Z,91.00
2017-11-01T20:33:55.966Z,91.20
2017-11-01T20:36:24.881Z,91.10
2017-11-01T20:38:53.760Z,91.10
2017-11-01T20:41:22.620Z,91.10
2017-11-01T20:43:52.035Z,91.20
2017-11-01T20:46:20.909Z,91.20
2017-11-01T20:48:50.542Z,91.20
2017-11-01T20:51:19.095Z,91.20
2017-11-01T20:53:48.727Z,91.00
2017-11-01T20:56:17.615Z,91.00
2017-11-01T20:58:46.478Z,90.90
2017-11-01T21:01:15.967Z,91.00
2017-11-01T21:03:44.828Z,90.90
2017-11-01T21:06:13.707Z,90.90
2017-11-01T21:08:42.569Z,90.80
2017-11-01T21:11:12.228Z,90.80
2017-11-01T21:13:41.087Z,90.80
2017-11-01T21:16:09.961Z,90.80
2017-11-01T21:18:39.600Z,91.10
2017-11-01T21:21:08.510Z,91.10
2017-11-01T21:23:37.471Z,91.30
2017-11-01T21:26:07.095Z,91.40
2017-11-01T21:28:35.961Z,91.40
2017-11-01T21:31:04.685Z,91.30
2017-11-01T21:33:33.552Z,91.30
2017-11-01T21:36:02.419Z,91.20
2017-11-01T21:38:32.031Z,91.20
2017-11-01T21:41:01.642Z,91.30
2017-11-01T21:43:31.794Z,91.30
2017-11-01T21:46:00.644Z,91.30
2017-11-01T21:48:30.263Z,91.70
2017-11-01T21:51:00.200Z,91.10
2017-11-01T21:53:29.480Z,91.10
2017-11-01T21:55:59.143Z,91.20
2017-11-01T21:58:28.015Z,91.20
2017-11-01T22:00:56.885Z,91.40
2017-11-01T22:03:25.766Z,91.50
2017-11-01T22:05:55.418Z,91.60
2017-11-01T22:08:24.269Z,91.60
2017-11-01T22:10:53.887Z,91.70
2017-11-01T22:13:22.740Z,91.60
2017-11-01T22:15:51.611Z,91.70
2017-11-01T22:18:20.482Z,91.70
2017-11-01T22:20:49.339Z,91.70
2017-11-01T22:23:18.980Z,91.70
2017-11-01T22:25:47.838Z,91.70
2017-11-01T22:28:17.468Z,91.90
2017-11-01T22:30:46.320Z,91.90
2017-11-01T22:33:15.177Z,92.00
2017-11-01T22:35:44.043Z,92.20
2017-11-01T22:38:12.908Z,92.30
2017-11-01T22:40:42.537Z,92.10
2017-11-01T22:43:11.386Z,92.10
2017-11-01T22:45:40.294Z,92.10
2017-11-01T22:48:09.919Z,92.20
2017-11-01T22:50:38.786Z,92.20
2017-11-01T22:53:08.440Z,92.20
2017-11-01T22:55:37.311Z,92.20
2017-11-01T22:58:06.940Z,92.30
2017-11-01T23:00:35.801Z,92.30
2017-11-01T23:03:05.430Z,92.30
2017-11-01T23:05:34.290Z,92.30
2017-11-01T23:08:03.727Z,92.40
2017-11-01T23:10:32.618Z,92.30
2017-11-01T23:13:01.474Z,92.40
2017-11-01T23:15:30.326Z,92.50
2017-11-01T23:17:59.187Z,92.20
2017-11-01T23:20:28.049Z,92.50
2017-11-01T23:22:57.696Z,92.50
2017-11-01T23:25:26.571Z,92.50
2017-11-01T23:27:56.192Z,92.60
2017-11-01T23:30:25.067Z,92.60
2017-11-01T23:32:54.689Z,92.60
2017-11-01T23:35:23.570Z,92.70
2017-11-01T23:37:52.431Z,92.70
2017-11-01T23:40:21.302Z,92.60
2017-11-01T23:42:50.159Z,92.70
2017-11-01T23:45:19.034Z,92.70
2017-11-01T23:47:48.667Z,92.70
2017-11-01T23:50:17.531Z,92.70
2017-11-01T23:52:47.157Z,92.90
2017-11-01T23:55:16.019Z,92.80
2017-11-01T23:57:45.642Z,93.10
